Time;durP1;ratioP1;P1;durP2;ratioP2;P2;SDS_P1;SDS_P2;PMS_P1;PMS_P2;Temp;Humidity;BMP_temperature;BMP_pressure;BME280_temperature;BME280_humidity;BME280_pressure;Samples;Min_cycle;Max_cycle;Signal;HPM_P1;HPM_P2
2022/05/25 00:00:32;;;;;;;10.77;7.40;;;;;;;;;;5021828;28;20501;-65
2022/05/25 00:02:58;;;;;;;11.30;7.53;;;;;;;;;;5017914;28;20041;-64
2022/05/25 00:05:24;;;;;;;13.80;7.07;;;;;;;;;;5019008;28;20053;-65
2022/05/25 00:07:50;;;;;;;10.82;7.85;;;;;;;;;;5013707;28;20038;-65
2022/05/25 00:10:16;;;;;;;11.95;8.65;;;;;;;;;;5004056;28;20045;-65
2022/05/25 00:12:43;;;;;;;16.08;8.73;;;;;;;;;;5017627;28;20516;-64
2022/05/25 00:15:11;;;;;;;11.57;9.00;;;;;;;;;;5025881;28;20473;-65
2022/05/25 00:17:37;;;;;;;11.88;8.45;;;;;;;;;;5021646;28;20057;-65
2022/05/25 00:20:04;;;;;;;12.63;8.35;;;;;;;;;;5014866;28;20038;-65
2022/05/25 00:22:42;;;;;;;12.85;9.35;;;;;;;;;;5001817;28;20046;-65
2022/05/25 00:25:09;;;;;;;9.63;8.05;;;;;;;;;;5021813;28;20042;-64
2022/05/25 00:27:35;;;;;;;11.25;8.88;;;;;;;;;;5013362;28;20082;-64
2022/05/25 00:30:02;;;;;;;13.88;9.68;;;;;;;;;;5020260;28;20046;-65
2022/05/25 00:32:28;;;;;;;12.38;9.65;;;;;;;;;;5017467;28;20044;-65
2022/05/25 00:34:54;;;;;;;13.85;9.90;;;;;;;;;;5022782;28;20060;-64
2022/05/25 00:37:20;;;;;;;16.73;10.80;;;;;;;;;;5019823;28;20038;-65
2022/05/25 00:39:47;;;;;;;15.73;10.95;;;;;;;;;;5002737;28;20045;-64
2022/05/25 00:42:13;;;;;;;15.80;10.00;;;;;;;;;;5018406;28;20579;-64
2022/05/25 00:44:39;;;;;;;15.75;9.68;;;;;;;;;;5022768;28;20037;-65
2022/05/25 00:47:07;;;;;;;14.70;10.38;;;;;;;;;;5010206;28;20085;-65
2022/05/25 00:49:34;;;;;;;24.67;8.63;;;;;;;;;;5017019;28;20386;-65
2022/05/25 00:52:04;;;;;;;13.45;9.32;;;;;;;;;;5015406;28;20448;-64
2022/05/25 00:54:32;;;;;;;12.95;9.65;;;;;;;;;;5008617;28;20065;-65
2022/05/25 00:57:01;;;;;;;16.55;9.50;;;;;;;;;;5013810;28;20069;-64
2022/05/25 00:59:31;;;;;;;11.70;9.60;;;;;;;;;;5011771;28;20046;-65
2022/05/25 01:01:57;;;;;;;17.50;10.25;;;;;;;;;;5013216;28;20193;-65
2022/05/25 01:04:24;;;;;;;14.15;10.40;;;;;;;;;;5015700;28;20125;-65
2022/05/25 01:06:50;;;;;;;15.40;9.82;;;;;;;;;;5003153;28;20132;-65
2022/05/25 01:09:25;;;;;;;13.98;9.05;;;;;;;;;;5008925;28;20044;-65
2022/05/25 01:12:11;;;;;;;26.73;6.63;;;;;;;;;;5012316;28;20197;-65
2022/05/25 01:14:56;;;;;;;32.85;9.23;;;;;;;;;;5013945;28;20041;-65
2022/05/25 01:17:45;;;;;;;129.23;12.75;;;;;;;;;;5010063;28;20388;-65
2022/05/25 01:20:16;;;;;;;21.40;8.90;;;;;;;;;;4990577;28;21330;-65
2022/05/25 01:22:42;;;;;;;15.45;10.00;;;;;;;;;;5010074;28;20111;-65
2022/05/25 01:25:12;;;;;;;17.60;11.38;;;;;;;;;;5011441;28;20049;-65
2022/05/25 01:27:42;;;;;;;15.23;9.82;;;;;;;;;;5011346;28;20049;-65
2022/05/25 01:30:10;;;;;;;14.52;10.50;;;;;;;;;;5013272;28;20038;-65
2022/05/25 01:32:42;;;;;;;17.60;12.25;;;;;;;;;;5014987;28;20202;-65
2022/05/25 01:35:12;;;;;;;16.70;11.73;;;;;;;;;;5013215;28;20072;-65
2022/05/25 01:37:52;;;;;;;15.95;11.00;;;;;;;;;;5009486;28;20060;-65
2022/05/25 01:40:24;;;;;;;16.27;12.18;;;;;;;;;;5011439;28;20042;-65
2022/05/25 01:42:53;;;;;;;19.08;12.63;;;;;;;;;;5015951;28;20038;-64
2022/05/25 01:45:21;;;;;;;16.77;12.02;;;;;;;;;;5019246;28;20450;-64
2022/05/25 01:47:48;;;;;;;16.02;11.55;;;;;;;;;;5013961;28;20030;-64
2022/05/25 01:50:20;;;;;;;18.08;12.10;;;;;;;;;;5016165;28;20041;-65
2022/05/25 01:52:49;;;;;;;19.17;12.65;;;;;;;;;;4993526;28;20073;-64
2022/05/25 01:55:19;;;;;;;17.80;12.82;;;;;;;;;;5012544;28;20050;-64
2022/05/25 01:57:48;;;;;;;16.48;12.88;;;;;;;;;;5013507;28;20045;-65
2022/05/25 02:00:26;;;;;;;16.83;13.20;;;;;;;;;;5019629;28;20088;-65
2022/05/25 02:05:39;;;;;;;19.13;13.93;;;;;;;;;;5024548;28;20509;-65
2022/05/25 02:08:18;;;;;;;19.88;13.57;;;;;;;;;;5022087;28;20498;-64
2022/05/25 02:11:03;;;;;;;25.65;14.48;;;;;;;;;;5019729;28;20060;-65
2022/05/25 02:13:33;;;;;;;21.05;13.55;;;;;;;;;;5020811;28;20533;-64
2022/05/25 02:16:05;;;;;;;21.27;13.85;;;;;;;;;;5023070;28;20038;-64
2022/05/25 02:18:37;;;;;;;19.48;13.80;;;;;;;;;;5020013;28;20041;-64
2022/05/25 02:21:06;;;;;;;18.85;12.55;;;;;;;;;;5006578;28;20046;-64
2022/05/25 02:23:41;;;;;;;24.67;13.98;;;;;;;;;;5020808;28;20035;-64
2022/05/25 02:26:10;;;;;;;22.73;13.43;;;;;;;;;;5010539;28;20470;-65
2022/05/25 02:28:40;;;;;;;22.85;14.77;;;;;;;;;;5014785;28;20192;-65
2022/05/25 02:31:08;;;;;;;21.00;13.85;;;;;;;;;;5027696;28;20057;-65
2022/05/25 02:33:37;;;;;;;23.63;14.63;;;;;;;;;;5026805;28;20441;-65
2022/05/25 02:36:04;;;;;;;28.58;13.88;;;;;;;;;;5009976;28;20058;-64
2022/05/25 02:38:31;;;;;;;27.40;14.35;;;;;;;;;;5020608;28;20057;-64
2022/05/25 02:41:05;;;;;;;25.40;14.85;;;;;;;;;;5016065;28;20037;-64
2022/05/25 02:43:31;;;;;;;25.05;15.55;;;;;;;;;;5019000;28;20062;-64
2022/05/25 02:45:58;;;;;;;24.63;15.40;;;;;;;;;;5025507;28;20140;-64
2022/05/25 02:48:24;;;;;;;28.98;15.80;;;;;;;;;;5018102;28;20104;-65
2022/05/25 02:50:50;;;;;;;20.05;14.48;;;;;;;;;;5022526;28;20052;-64
2022/05/25 02:53:17;;;;;;;23.65;15.02;;;;;;;;;;5012612;28;20038;-64
2022/05/25 02:55:43;;;;;;;34.13;15.02;;;;;;;;;;5015016;28;20038;-64
2022/05/25 02:58:09;;;;;;;25.38;14.88;;;;;;;;;;5016364;28;20037;-64
2022/05/25 03:00:35;;;;;;;25.40;14.38;;;;;;;;;;5018160;28;20042;-65
2022/05/25 03:03:01;;;;;;;26.63;15.30;;;;;;;;;;5014435;28;20046;-65
2022/05/25 03:05:28;;;;;;;24.33;15.25;;;;;;;;;;5007843;28;20050;-65
2022/05/25 03:07:54;;;;;;;23.90;14.68;;;;;;;;;;5016610;28;20042;-64
2022/05/25 03:10:20;;;;;;;20.35;14.18;;;;;;;;;;5015687;28;20432;-64
2022/05/25 03:12:47;;;;;;;19.95;13.68;;;;;;;;;;5022228;28;20050;-65
2022/05/25 03:15:13;;;;;;;19.23;12.85;;;;;;;;;;5022407;28;20494;-65
2022/05/25 03:17:40;;;;;;;22.20;13.35;;;;;;;;;;5020021;28;20041;-64
2022/05/25 03:20:07;;;;;;;21.30;13.20;;;;;;;;;;5022426;28;20060;-65
2022/05/25 03:22:36;;;;;;;26.25;14.43;;;;;;;;;;5021729;28;20840;-64
2022/05/25 03:25:03;;;;;;;21.98;13.75;;;;;;;;;;5017890;28;20052;-64
2022/05/25 03:27:29;;;;;;;24.38;14.15;;;;;;;;;;5007567;28;20049;-65
2022/05/25 03:29:55;;;;;;;20.65;13.95;;;;;;;;;;5015062;28;20041;-64
2022/05/25 03:32:21;;;;;;;22.70;13.18;;;;;;;;;;5023120;28;20068;-64
2022/05/25 03:34:48;;;;;;;27.27;15.00;;;;;;;;;;5012250;28;20063;-64
2022/05/25 03:37:14;;;;;;;20.55;12.82;;;;;;;;;;5013883;28;20038;-64
2022/05/25 03:39:40;;;;;;;20.33;13.70;;;;;;;;;;5015828;28;20042;-64
2022/05/25 03:42:08;;;;;;;25.50;14.45;;;;;;;;;;5025159;28;20041;-64
2022/05/25 03:44:35;;;;;;;20.77;12.52;;;;;;;;;;5016068;28;20049;-64
2022/05/25 03:47:02;;;;;;;31.13;12.75;;;;;;;;;;5018144;28;20060;-64
2022/05/25 03:49:28;;;;;;;21.35;12.73;;;;;;;;;;5003332;28;20557;-65
2022/05/25 03:51:54;;;;;;;17.17;11.65;;;;;;;;;;5017234;28;20489;-64
2022/05/25 03:54:21;;;;;;;24.35;12.23;;;;;;;;;;5001040;28;20034;-64
2022/05/25 03:56:47;;;;;;;20.95;11.25;;;;;;;;;;5015579;28;20401;-64
2022/05/25 03:59:13;;;;;;;16.73;11.98;;;;;;;;;;5025560;28;20152;-64
2022/05/25 04:01:39;;;;;;;19.38;12.75;;;;;;;;;;5007804;28;20416;-64
2022/05/25 04:04:06;;;;;;;23.35;12.55;;;;;;;;;;5012174;28;20046;-64
2022/05/25 04:06:32;;;;;;;21.35;12.95;;;;;;;;;;5020530;28;20520;-65
2022/05/25 04:08:58;;;;;;;20.33;12.68;;;;;;;;;;5001207;28;20064;-65
2022/05/25 04:11:24;;;;;;;22.20;12.55;;;;;;;;;;5001674;28;20066;-65
2022/05/25 04:13:51;;;;;;;21.40;12.20;;;;;;;;;;4998523;28;20073;-64
2022/05/25 04:16:17;;;;;;;24.60;13.15;;;;;;;;;;5004777;28;20049;-65
2022/05/25 04:18:43;;;;;;;17.75;12.57;;;;;;;;;;5010267;28;20455;-64
2022/05/25 04:21:09;;;;;;;20.13;13.48;;;;;;;;;;5002690;28;20099;-65
2022/05/25 04:23:36;;;;;;;23.45;13.02;;;;;;;;;;5009080;28;20096;-65
2022/05/25 04:26:02;;;;;;;26.90;13.52;;;;;;;;;;5010681;28;20042;-64
2022/05/25 04:28:28;;;;;;;24.98;13.02;;;;;;;;;;5009521;28;22000;-64
2022/05/25 04:30:54;;;;;;;22.23;13.25;;;;;;;;;;5010358;28;20133;-64
2022/05/25 04:33:20;;;;;;;23.50;13.57;;;;;;;;;;5002839;28;20057;-65
2022/05/25 04:35:47;;;;;;;20.65;13.10;;;;;;;;;;5010627;28;20050;-65
2022/05/25 04:38:14;;;;;;;30.60;13.32;;;;;;;;;;5012985;28;20192;-65
2022/05/25 04:40:43;;;;;;;24.42;14.10;;;;;;;;;;4997418;28;20755;-65
2022/05/25 04:43:12;;;;;;;21.25;14.70;;;;;;;;;;5008287;28;20049;-65
2022/05/25 04:45:39;;;;;;;24.30;13.65;;;;;;;;;;5011102;28;20489;-65
2022/05/25 04:48:05;;;;;;;22.88;13.13;;;;;;;;;;5012024;28;20046;-64
2022/05/25 04:50:34;;;;;;;18.13;12.63;;;;;;;;;;5014149;28;20394;-64
2022/05/25 04:53:00;;;;;;;21.05;13.05;;;;;;;;;;5010008;28;20046;-64
2022/05/25 04:58:26;;;;;;;20.42;11.75;;;;;;;;;;5003048;28;20053;-64
2022/05/25 05:00:52;;;;;;;25.20;12.63;;;;;;;;;;5012854;28;20119;-65
2022/05/25 05:03:19;;;;;;;24.52;12.43;;;;;;;;;;5014597;28;20718;-65
2022/05/25 05:05:46;;;;;;;25.85;14.35;;;;;;;;;;5011225;28;20484;-64
2022/05/25 05:08:12;;;;;;;30.45;17.23;;;;;;;;;;5008704;28;20037;-65
2022/05/25 05:10:39;;;;;;;35.40;21.83;;;;;;;;;;5014063;28;20041;-64
2022/05/25 05:13:07;;;;;;;49.25;23.65;;;;;;;;;;5014192;28;20033;-64
2022/05/25 05:15:34;;;;;;;45.53;26.38;;;;;;;;;;5007755;28;20053;-64
2022/05/25 05:18:01;;;;;;;53.22;30.90;;;;;;;;;;4996146;28;20092;-64
2022/05/25 05:20:28;;;;;;;61.88;32.85;;;;;;;;;;5006707;28;20058;-64
2022/05/25 05:22:54;;;;;;;62.70;35.90;;;;;;;;;;5010955;28;20104;-64
2022/05/25 05:25:21;;;;;;;56.45;31.98;;;;;;;;;;5009963;28;20184;-64
2022/05/25 05:27:47;;;;;;;49.17;24.92;;;;;;;;;;5012913;28;20461;-64
2022/05/25 05:30:16;;;;;;;32.35;16.77;;;;;;;;;;5012643;28;20091;-64
2022/05/25 05:32:42;;;;;;;20.98;11.80;;;;;;;;;;5015687;28;20046;-64
2022/05/25 05:35:09;;;;;;;19.17;8.90;;;;;;;;;;5014586;28;20050;-64
2022/05/25 05:37:40;;;;;;;16.45;8.18;;;;;;;;;;5012615;28;20090;-63
2022/05/25 05:40:08;;;;;;;16.35;7.32;;;;;;;;;;5014714;28;20033;-64
2022/05/25 05:42:36;;;;;;;14.38;7.85;;;;;;;;;;5009565;28;20117;-64
2022/05/25 05:45:05;;;;;;;13.70;7.32;;;;;;;;;;5007641;28;20096;-64
2022/05/25 05:47:35;;;;;;;14.20;6.82;;;;;;;;;;5010599;28;20042;-64
2022/05/25 05:50:04;;;;;;;11.27;6.50;;;;;;;;;;5012918;28;20046;-64
2022/05/25 05:52:30;;;;;;;13.60;6.60;;;;;;;;;;5013656;28;20082;-64
2022/05/25 05:54:57;;;;;;;17.83;6.97;;;;;;;;;;5012161;28;20034;-64
2022/05/25 05:57:25;;;;;;;10.98;5.95;;;;;;;;;;5013252;28;20052;-64
2022/05/25 05:59:51;;;;;;;15.50;6.20;;;;;;;;;;5009704;28;20461;-63
2022/05/25 06:02:17;;;;;;;11.35;7.13;;;;;;;;;;5009807;28;20126;-64
2022/05/25 06:04:43;;;;;;;20.17;8.55;;;;;;;;;;5017149;28;20033;-64
2022/05/25 06:07:09;;;;;;;16.98;8.85;;;;;;;;;;5012249;28;20378;-64
2022/05/25 06:09:35;;;;;;;14.43;8.02;;;;;;;;;;5010025;28;20552;-64
2022/05/25 06:12:02;;;;;;;11.90;7.15;;;;;;;;;;5013860;28;20034;-64
2022/05/25 06:14:28;;;;;;;13.70;6.20;;;;;;;;;;5014127;28;20689;-64
2022/05/25 06:19:55;;;;;;;9.43;4.35;;;;;;;;;;5011015;28;20478;-64
2022/05/25 06:22:22;;;;;;;10.25;4.25;;;;;;;;;;4985560;28;20061;-64
2022/05/25 06:24:49;;;;;;;11.95;4.70;;;;;;;;;;5013795;28;20438;-64
2022/05/25 06:27:16;;;;;;;10.32;4.15;;;;;;;;;;5018734;28;20041;-64
2022/05/25 06:29:44;;;;;;;9.23;3.78;;;;;;;;;;5002049;28;20103;-64
2022/05/25 06:32:11;;;;;;;12.77;4.40;;;;;;;;;;5010524;28;20334;-63
2022/05/25 06:34:38;;;;;;;11.15;4.13;;;;;;;;;;5015846;28;20034;-64
2022/05/25 06:37:04;;;;;;;12.90;3.72;;;;;;;;;;5015557;28;20077;-63
2022/05/25 06:39:34;;;;;;;8.52;3.17;;;;;;;;;;5012146;28;20068;-63
2022/05/25 06:42:00;;;;;;;6.95;2.78;;;;;;;;;;5009617;28;20385;-63
2022/05/25 06:44:27;;;;;;;10.95;3.05;;;;;;;;;;5010667;28;21324;-63
2022/05/25 06:46:53;;;;;;;11.82;3.63;;;;;;;;;;5015014;28;20335;-63
2022/05/25 06:49:19;;;;;;;9.93;3.05;;;;;;;;;;4999834;28;20049;-63
2022/05/25 06:51:46;;;;;;;6.43;2.67;;;;;;;;;;5012051;28;20091;-63
2022/05/25 06:54:14;;;;;;;10.27;2.50;;;;;;;;;;5009175;28;20092;-63
2022/05/25 06:56:41;;;;;;;9.13;2.97;;;;;;;;;;5000748;28;20038;-63
2022/05/25 06:59:07;;;;;;;9.68;2.90;;;;;;;;;;5016824;28;20151;-63
2022/05/25 07:01:34;;;;;;;8.43;2.67;;;;;;;;;;5017019;28;20064;-63
2022/05/25 07:04:00;;;;;;;9.68;3.22;;;;;;;;;;5013004;28;20045;-63
2022/05/25 07:06:27;;;;;;;8.80;2.30;;;;;;;;;;4998108;28;20569;-63
2022/05/25 07:08:53;;;;;;;13.35;2.88;;;;;;;;;;4994974;28;20085;-63
2022/05/25 07:11:20;;;;;;;9.27;2.20;;;;;;;;;;5013433;28;20062;-63
2022/05/25 07:13:47;;;;;;;5.30;1.95;;;;;;;;;;5012660;28;20044;-63
2022/05/25 07:16:15;;;;;;;5.38;1.83;;;;;;;;;;5010950;28;20073;-63
2022/05/25 07:18:42;;;;;;;8.68;2.58;;;;;;;;;;5010043;28;20086;-64
2022/05/25 07:21:10;;;;;;;7.03;2.00;;;;;;;;;;5013264;28;20069;-65
2022/05/25 07:23:38;;;;;;;6.55;2.40;;;;;;;;;;4995559;28;20073;-63
2022/05/25 07:26:06;;;;;;;5.22;2.25;;;;;;;;;;4998692;28;20478;-63
2022/05/25 07:28:33;;;;;;;8.35;2.50;;;;;;;;;;4997267;28;20076;-64
2022/05/25 07:31:02;;;;;;;7.10;2.83;;;;;;;;;;5010533;28;20053;-63
2022/05/25 07:33:29;;;;;;;6.18;2.70;;;;;;;;;;5009591;28;20046;-63
2022/05/25 07:35:55;;;;;;;10.50;3.17;;;;;;;;;;4998223;28;20493;-63
2022/05/25 07:38:22;;;;;;;9.35;3.95;;;;;;;;;;5011134;28;20557;-63
2022/05/25 07:40:48;;;;;;;7.13;2.83;;;;;;;;;;5010834;28;20052;-64
2022/05/25 07:43:15;;;;;;;9.80;3.40;;;;;;;;;;5015863;28;20033;-63
2022/05/25 07:45:42;;;;;;;8.65;3.20;;;;;;;;;;5005372;28;20216;-64
2022/05/25 07:48:08;;;;;;;7.07;3.38;;;;;;;;;;5013679;28;20045;-63
2022/05/25 07:50:35;;;;;;;7.80;3.97;;;;;;;;;;5016985;28;20120;-63
2022/05/25 07:53:01;;;;;;;9.02;3.28;;;;;;;;;;5018302;28;20049;-63
2022/05/25 07:55:28;;;;;;;7.25;2.90;;;;;;;;;;4996784;28;20054;-64
2022/05/25 07:57:54;;;;;;;8.07;3.00;;;;;;;;;;5013079;28;20548;-64
2022/05/25 08:00:24;;;;;;;6.85;2.78;;;;;;;;;;5007608;28;20053;-64
2022/05/25 08:05:43;;;;;;;7.38;2.83;;;;;;;;;;5000985;28;20050;-63
2022/05/25 08:08:14;;;;;;;7.70;3.20;;;;;;;;;;5009237;28;20482;-64
2022/05/25 08:10:42;;;;;;;10.15;2.85;;;;;;;;;;5014039;28;20065;-64
2022/05/25 08:13:08;;;;;;;7.55;3.10;;;;;;;;;;5009166;28;20041;-64
2022/05/25 08:15:35;;;;;;;8.02;2.50;;;;;;;;;;5015528;28;20116;-64
2022/05/25 08:18:01;;;;;;;5.13;2.45;;;;;;;;;;5011482;28;20041;-64
2022/05/25 08:20:30;;;;;;;7.18;3.25;;;;;;;;;;5019600;28;20054;-64
2022/05/25 08:22:57;;;;;;;4.45;2.45;;;;;;;;;;5014441;28;20034;-64
2022/05/25 08:25:23;;;;;;;5.32;2.85;;;;;;;;;;5010021;28;20065;-63
2022/05/25 08:27:49;;;;;;;9.68;3.00;;;;;;;;;;5010262;28;20041;-64
2022/05/25 08:30:17;;;;;;;8.45;3.00;;;;;;;;;;4996242;28;20103;-64
2022/05/25 08:32:44;;;;;;;7.97;3.00;;;;;;;;;;5010595;28;20073;-64
2022/05/25 08:35:10;;;;;;;8.57;2.90;;;;;;;;;;5008754;28;20124;-64
2022/05/25 08:37:37;;;;;;;6.30;2.70;;;;;;;;;;5015912;28;20052;-64
2022/05/25 08:40:04;;;;;;;7.13;3.08;;;;;;;;;;5010825;28;20076;-63
2022/05/25 08:42:33;;;;;;;10.13;2.70;;;;;;;;;;5010422;28;20108;-64
2022/05/25 08:45:00;;;;;;;10.77;3.33;;;;;;;;;;5013053;28;20046;-64
2022/05/25 08:47:26;;;;;;;8.57;3.35;;;;;;;;;;5018546;28;20049;-64
2022/05/25 08:49:52;;;;;;;7.35;3.75;;;;;;;;;;5013354;28;20076;-64
2022/05/25 08:52:23;;;;;;;10.52;4.25;;;;;;;;;;5016108;28;20049;-64
2022/05/25 08:54:49;;;;;;;8.65;4.97;;;;;;;;;;5009186;28;20053;-63
2022/05/25 08:57:19;;;;;;;9.13;4.72;;;;;;;;;;5015221;28;20454;-64
2022/05/25 08:59:54;;;;;;;10.93;5.70;;;;;;;;;;5012494;28;20424;-64
2022/05/25 09:02:28;;;;;;;9.73;4.70;;;;;;;;;;5013124;28;20148;-64
2022/05/25 09:05:13;;;;;;;8.32;5.03;;;;;;;;;;5017577;28;20355;-63
2022/05/25 09:07:47;;;;;;;12.77;5.30;;;;;;;;;;4998896;28;20050;-64
2022/05/25 09:10:15;;;;;;;9.23;5.18;;;;;;;;;;5010915;28;20138;-63
2022/05/25 09:12:43;;;;;;;8.30;4.80;;;;;;;;;;5003035;28;20136;-63
2022/05/25 09:15:16;;;;;;;9.00;4.07;;;;;;;;;;5011987;28;20441;-63
2022/05/25 09:17:45;;;;;;;8.15;4.05;;;;;;;;;;5009953;28;20133;-64
2022/05/25 09:20:14;;;;;;;11.20;5.78;;;;;;;;;;4992879;28;20112;-64
2022/05/25 09:22:41;;;;;;;9.85;5.18;;;;;;;;;;5013107;28;20781;-64
2022/05/25 09:25:09;;;;;;;13.05;8.07;;;;;;;;;;5009477;28;20052;-61
2022/05/25 09:27:44;;;;;;;11.85;7.60;;;;;;;;;;5017306;28;20045;-62
2022/05/25 09:30:12;;;;;;;10.15;5.78;;;;;;;;;;5015118;28;20045;-63
2022/05/25 09:32:43;;;;;;;14.32;7.70;;;;;;;;;;5000164;28;20045;-63
2022/05/25 09:35:15;;;;;;;15.88;8.73;;;;;;;;;;5012641;28;20513;-64
2022/05/25 09:37:45;;;;;;;12.75;8.13;;;;;;;;;;5013773;28;20130;-64
2022/05/25 09:40:19;;;;;;;13.52;8.13;;;;;;;;;;5018389;28;20042;-63
2022/05/25 09:42:50;;;;;;;13.40;7.70;;;;;;;;;;5003655;28;20141;-63
2022/05/25 09:45:16;;;;;;;21.75;9.48;;;;;;;;;;5012846;28;20504;-63
2022/05/25 09:47:45;;;;;;;13.15;8.20;;;;;;;;;;4998719;28;20076;-64
2022/05/25 09:50:35;;;;;;;17.33;9.68;;;;;;;;;;5008026;28;20121;-65
2022/05/25 09:53:04;;;;;;;13.45;8.93;;;;;;;;;;5030423;28;20041;-64
2022/05/25 09:55:33;;;;;;;27.70;12.32;;;;;;;;;;5032434;28;20117;-65
2022/05/25 09:58:01;;;;;;;19.60;14.82;;;;;;;;;;5035128;28;20132;-65
2022/05/25 10:00:35;;;;;;;26.67;19.27;;;;;;;;;;5035687;28;20046;-65
2022/05/25 10:03:04;;;;;;;20.48;15.20;;;;;;;;;;5022308;28;20501;-65
2022/05/25 10:05:33;;;;;;;18.30;15.25;;;;;;;;;;5015009;28;20042;-65
2022/05/25 10:08:05;;;;;;;11.45;7.60;;;;;;;;;;5015261;28;20050;-65
2022/05/25 10:10:33;;;;;;;11.93;6.82;;;;;;;;;;5015891;28;20048;-65
2022/05/25 10:13:01;;;;;;;7.45;4.47;;;;;;;;;;5024204;28;20042;-65
2022/05/25 10:15:30;;;;;;;8.57;5.07;;;;;;;;;;5035197;28;20045;-65
2022/05/25 10:17:56;;;;;;;7.95;4.63;;;;;;;;;;5035199;28;20423;-65
2022/05/25 10:20:25;;;;;;;8.23;5.18;;;;;;;;;;5034553;28;20052;-65
2022/05/25 10:22:59;;;;;;;11.10;6.72;;;;;;;;;;5029104;28;20085;-65
2022/05/25 10:25:28;;;;;;;16.50;10.27;;;;;;;;;;5015130;28;20076;-65
2022/05/25 10:27:55;;;;;;;11.13;6.30;;;;;;;;;;5014696;28;20069;-65
2022/05/25 10:39:13;;;;;;;5.93;1.10;;;;;;;;;;5034736;28;20143;-65
2022/05/25 10:41:41;;;;;;;3.88;1.50;;;;;;;;;;5034407;28;20068;-65
2022/05/25 10:44:17;;;;;;;8.95;2.28;;;;;;;;;;5024176;28;20155;-65
2022/05/25 10:46:49;;;;;;;8.30;2.83;;;;;;;;;;5014842;28;20124;-65
2022/05/25 10:49:21;;;;;;;7.90;3.63;;;;;;;;;;5014626;28;20430;-65
2022/05/25 10:51:50;;;;;;;5.88;3.60;;;;;;;;;;5014740;28;20061;-65
2022/05/25 10:57:19;;;;;;;23.50;11.93;;;;;;;;;;5034044;28;20042;-65
2022/05/25 10:59:51;;;;;;;19.05;13.35;;;;;;;;;;5034569;28;20045;-64
2022/05/25 11:02:28;;;;;;;18.23;14.55;;;;;;;;;;5033617;28;20041;-65
2022/05/25 11:05:02;;;;;;;16.98;13.70;;;;;;;;;;5023423;28;20410;-65
2022/05/25 11:07:34;;;;;;;20.42;16.65;;;;;;;;;;4996702;28;20042;-65
2022/05/25 11:10:00;;;;;;;21.42;17.08;;;;;;;;;;4996154;28;20050;-65
2022/05/25 11:12:32;;;;;;;27.63;22.30;;;;;;;;;;5014365;28;20046;-65
2022/05/25 11:15:05;;;;;;;28.77;25.35;;;;;;;;;;5021811;28;20120;-65
2022/05/25 11:17:31;;;;;;;;;;;;;;;;;;5016459;28;20061;-65
2022/05/25 11:20:06;;;;;;;15.65;10.10;;;;;;;;;;5016163;28;20351;-65
2022/05/25 11:22:36;;;;;;;16.88;8.07;;;;;;;;;;5033391;28;20052;-65
2022/05/25 11:25:09;;;;;;;9.85;6.43;;;;;;;;;;5031855;28;20468;-65
2022/05/25 11:27:35;;;;;;;8.77;2.58;;;;;;;;;;5034061;28;20045;-65
2022/05/25 11:30:02;;;;;;;7.05;1.75;;;;;;;;;;5015507;28;20379;-65
2022/05/25 11:32:32;;;;;;;6.60;1.80;;;;;;;;;;5033642;28;20057;-65
2022/05/25 11:35:11;;;;;;;8.50;1.35;;;;;;;;;;5031022;28;20054;-65
2022/05/25 11:37:57;;;;;;;6.45;1.60;;;;;;;;;;5013644;28;20077;-65
2022/05/25 11:40:31;;;;;;;6.18;2.00;;;;;;;;;;4996354;28;20493;-65
2022/05/25 11:43:07;;;;;;;3.08;1.33;;;;;;;;;;5013934;28;20041;-65
2022/05/25 11:45:54;;;;;;;10.60;1.20;;;;;;;;;;4999568;28;20049;-65
2022/05/25 11:48:24;;;;;;;7.32;1.95;;;;;;;;;;5033669;28;20045;-65
2022/05/25 11:51:00;;;;;;;4.40;0.95;;;;;;;;;;5032895;28;20157;-65
2022/05/25 11:53:37;;;;;;;6.53;1.20;;;;;;;;;;5033144;28;20041;-65
2022/05/25 11:56:17;;;;;;;4.03;1.10;;;;;;;;;;5032733;28;20053;-65
2022/05/25 11:58:49;;;;;;;5.07;1.20;;;;;;;;;;5032973;28;20519;-65
2022/05/25 12:01:22;;;;;;;6.82;1.90;;;;;;;;;;5033271;28;20049;-65
2022/05/25 12:03:58;;;;;;;8.03;1.20;;;;;;;;;;5033266;28;20053;-65
2022/05/25 12:06:39;;;;;;;5.25;1.15;;;;;;;;;;5030571;28;20667;-65
2022/05/25 12:09:14;;;;;;;5.57;1.30;;;;;;;;;;5032990;28;20547;-65
2022/05/25 12:11:41;;;;;;;11.15;1.50;;;;;;;;;;5032778;28;20092;-65
2022/05/25 12:14:26;;;;;;;10.75;1.52;;;;;;;;;;5033160;28;20457;-65
2022/05/25 12:16:53;;;;;;;4.95;1.30;;;;;;;;;;5018928;28;20410;-65
2022/05/25 12:19:24;;;;;;;8.63;1.42;;;;;;;;;;5012049;28;20053;-65
2022/05/25 12:21:53;;;;;;;8.13;0.90;;;;;;;;;;5012993;28;20034;-65
2022/05/25 12:24:21;;;;;;;8.02;1.58;;;;;;;;;;5013315;28;20186;-65
2022/05/25 12:26:48;;;;;;;9.95;1.23;;;;;;;;;;5022422;28;20537;-65
2022/05/25 12:29:15;;;;;;;8.15;1.15;;;;;;;;;;5032725;28;20045;-65
2022/05/25 12:31:42;;;;;;;5.13;1.08;;;;;;;;;;5015121;28;20438;-65
2022/05/25 12:34:11;;;;;;;5.75;1.25;;;;;;;;;;5031879;28;20516;-65
2022/05/25 12:36:38;;;;;;;3.72;1.05;;;;;;;;;;5026159;28;20486;-65
2022/05/25 12:39:04;;;;;;;3.45;0.80;;;;;;;;;;5012960;28;20522;-65
2022/05/25 12:41:35;;;;;;;10.65;1.40;;;;;;;;;;5012040;28;20041;-65
2022/05/25 12:48:30;;;;;;;4.10;0.90;;;;;;;;;;5012682;28;20202;-65
2022/05/25 12:49:39;;;;;;;4.57;1.17;;;;;;;;;;5032326;28;20045;-65
2022/05/25 12:52:24;;;;;;;7.57;1.35;;;;;;;;;;5032392;28;20045;-65
2022/05/25 12:54:50;;;;;;;4.25;0.93;;;;;;;;;;5031939;28;20050;-65
2022/05/25 12:57:24;;;;;;;3.63;1.08;;;;;;;;;;5026596;28;20057;-65
2022/05/25 12:59:51;;;;;;;7.53;1.38;;;;;;;;;;5012515;28;20092;-65
2022/05/25 13:02:27;;;;;;;6.70;1.30;;;;;;;;;;5011763;28;20184;-64
2022/05/25 13:05:01;;;;;;;7.00;0.80;;;;;;;;;;5012491;28;20038;-64
2022/05/25 13:07:34;;;;;;;9.88;1.10;;;;;;;;;;4997996;28;20045;-65
2022/05/25 13:10:00;;;;;;;4.10;0.80;;;;;;;;;;5032071;28;20072;-65
2022/05/25 13:12:45;;;;;;;4.22;0.82;;;;;;;;;;5032164;28;20042;-65
2022/05/25 13:15:14;;;;;;;3.90;0.93;;;;;;;;;;5031497;28;20048;-65
2022/05/25 13:17:43;;;;;;;3.60;0.88;;;;;;;;;;5031073;28;20046;-65
2022/05/25 13:20:13;;;;;;;5.57;0.88;;;;;;;;;;5032404;28;20389;-65
2022/05/25 13:22:39;;;;;;;8.23;1.50;;;;;;;;;;5013849;28;20493;-64
2022/05/25 13:25:08;;;;;;;6.90;1.30;;;;;;;;;;5031736;28;20124;-65
2022/05/25 13:27:45;;;;;;;8.30;1.38;;;;;;;;;;5032054;28;20041;-65
2022/05/25 13:30:16;;;;;;;4.00;1.08;;;;;;;;;;5012237;28;20049;-64
2022/05/25 13:33:02;;;;;;;6.03;1.10;;;;;;;;;;5016251;28;20414;-65
2022/05/25 13:35:32;;;;;;;6.50;0.80;;;;;;;;;;5016161;28;20057;-65
2022/05/25 13:38:08;;;;;;;5.78;1.00;;;;;;;;;;5015500;28;20053;-65
2022/05/25 13:40:40;;;;;;;5.65;1.17;;;;;;;;;;4998559;28;20053;-64
2022/05/25 13:43:09;;;;;;;6.35;1.00;;;;;;;;;;5015461;28;20053;-65
2022/05/25 13:45:40;;;;;;;8.05;1.33;;;;;;;;;;5015760;28;20053;-64
2022/05/25 13:48:10;;;;;;;5.28;1.00;;;;;;;;;;5016020;28;20113;-65
2022/05/25 13:50:39;;;;;;;7.88;1.00;;;;;;;;;;5015616;28;20038;-65
2022/05/25 13:53:09;;;;;;;11.50;1.67;;;;;;;;;;5015798;28;20093;-65
2022/05/25 13:55:36;;;;;;;6.20;1.10;;;;;;;;;;5016140;28;20045;-65
2022/05/25 13:58:07;;;;;;;6.82;0.93;;;;;;;;;;5016318;28;20041;-65
2022/05/25 14:00:38;;;;;;;7.05;1.25;;;;;;;;;;5015721;28;20050;-65
2022/05/25 14:03:06;;;;;;;8.55;1.77;;;;;;;;;;5016611;28;20590;-64
2022/05/25 14:05:34;;;;;;;6.78;1.40;;;;;;;;;;5014820;28;20092;-65
2022/05/25 14:08:20;;;;;;;7.38;1.60;;;;;;;;;;4998243;28;20513;-64
2022/05/25 14:10:54;;;;;;;6.80;1.40;;;;;;;;;;5016961;28;20038;-64
2022/05/25 14:13:28;;;;;;;6.72;1.40;;;;;;;;;;5035016;28;20412;-65
2022/05/25 14:15:54;;;;;;;;;;;;;;;;;;5035533;28;20140;-65
2022/05/25 14:18:21;;;;;;;9.68;1.95;;;;;;;;;;5034326;28;20440;-65
2022/05/25 14:20:47;;;;;;;6.32;1.63;;;;;;;;;;5015391;28;20088;-65
2022/05/25 14:23:13;;;;;;;8.45;1.45;;;;;;;;;;5015414;28;20447;-65
2022/05/25 14:25:42;;;;;;;4.38;0.90;;;;;;;;;;5014761;28;20050;-65
2022/05/25 14:28:11;;;;;;;11.13;1.50;;;;;;;;;;5014946;28;20061;-64
2022/05/25 14:30:37;;;;;;;5.25;1.10;;;;;;;;;;5030974;28;20500;-64
2022/05/25 14:33:05;;;;;;;4.82;1.27;;;;;;;;;;5034461;28;20053;-65
2022/05/25 14:35:33;;;;;;;10.35;1.90;;;;;;;;;;5034671;28;20045;-65
2022/05/25 14:38:01;;;;;;;8.00;1.75;;;;;;;;;;5034855;28;20057;-65
2022/05/25 14:40:33;;;;;;;6.80;1.15;;;;;;;;;;5015850;28;20089;-65
2022/05/25 14:43:01;;;;;;;7.82;1.40;;;;;;;;;;5026193;28;20381;-64
2022/05/25 14:45:28;;;;;;;6.68;1.05;;;;;;;;;;5017113;28;20357;-65
2022/05/25 14:47:57;;;;;;;9.38;1.33;;;;;;;;;;5033959;28;20037;-65
2022/05/25 14:50:28;;;;;;;9.52;1.30;;;;;;;;;;5034157;28;20154;-65
2022/05/25 14:53:06;;;;;;;7.75;1.55;;;;;;;;;;5034426;28;20046;-65
2022/05/25 14:55:34;;;;;;;8.05;1.58;;;;;;;;;;5034252;28;20046;-64
2022/05/25 14:58:06;;;;;;;8.02;1.73;;;;;;;;;;5034574;28;20044;-65
2022/05/25 15:00:35;;;;;;;9.95;1.48;;;;;;;;;;5027445;28;20067;-65
2022/05/25 15:03:02;;;;;;;7.93;1.77;;;;;;;;;;5014415;28;20486;-65
2022/05/25 15:05:40;;;;;;;11.77;2.13;;;;;;;;;;5014533;28;20460;-65
2022/05/25 15:08:19;;;;;;;13.80;1.33;;;;;;;;;;5013935;28;20046;-65